Time;durP1;ratioP1;P1;durP2;ratioP2;P2;SDS_P1;SDS_P2;PMS_P1;PMS_P2;Temp;Humidity;BMP_temperature;BMP_pressure;BME280_temperature;BME280_humidity;BME280_pressure;Samples;Min_cycle;Max_cycle;Signal;HPM_P1;HPM_P2
2021/01/31 00:01:10;;;;;;;10.37;7.73;;;;;;;1.73;100.00;94961.84;5051022;28;20698;-66
2021/01/31 00:03:35;;;;;;;8.27;7.47;;;;;;;1.68;100.00;94970.22;5050300;28;20255;-66
2021/01/31 00:06:03;;;;;;;8.43;7.37;;;;;;;1.74;100.00;94964.19;5050577;28;20589;-66
2021/01/31 00:08:29;;;;;;;8.73;7.87;;;;;;;1.70;100.00;94963.03;5050116;28;20215;-67
2021/01/31 00:10:56;;;;;;;13.20;8.40;;;;;;;1.64;100.00;94964.69;5051401;28;20265;-66
2021/01/31 00:13:23;;;;;;;41.80;9.40;;;;;;;1.51;100.00;94962.25;5050340;28;20182;-71
2021/01/31 00:15:51;;;;;;;20.17;9.77;;;;;;;1.51;100.00;94964.03;5035454;28;20190;-67
2021/01/31 00:18:20;;;;;;;21.70;9.60;;;;;;;1.54;100.00;94971.38;5049924;28;20185;-67
2021/01/31 00:20:48;;;;;;;10.97;9.87;;;;;;;1.56;100.00;94969.38;5032836;28;20196;-66
2021/01/31 00:23:13;;;;;;;8.87;8.07;;;;;;;1.51;100.00;94972.56;5050336;28;20268;-66
2021/01/31 00:25:39;;;;;;;9.60;8.70;;;;;;;1.52;100.00;94969.00;5038724;28;20261;-66
2021/01/31 00:28:06;;;;;;;9.30;8.40;;;;;;;1.49;100.00;94972.03;5050762;28;20650;-66
2021/01/31 00:30:35;;;;;;;8.27;7.47;;;;;;;1.41;100.00;94980.03;5049982;28;20190;-66
2021/01/31 00:33:04;;;;;;;8.37;7.57;;;;;;;1.38;100.00;94984.84;5049891;28;20248;-66
2021/01/31 00:35:32;;;;;;;9.40;8.10;;;;;;;1.46;100.00;94982.75;5050259;28;20209;-65
2021/01/31 00:37:57;;;;;;;9.07;8.10;;;;;;;1.48;100.00;94983.34;5050414;28;20234;-65
2021/01/31 00:40:23;;;;;;;10.17;8.20;;;;;;;1.49;100.00;94997.03;5050526;28;20189;-72
2021/01/31 00:42:48;;;;;;;9.23;7.80;;;;;;;1.54;100.00;94986.84;5050587;28;20689;-67
2021/01/31 00:45:19;;;;;;;8.93;8.00;;;;;;;1.51;100.00;94989.84;5050568;28;20190;-67
2021/01/31 00:47:44;;;;;;;12.07;8.23;;;;;;;1.34;100.00;94991.44;5032211;28;20305;-67
2021/01/31 00:50:15;;;;;;;10.73;8.93;;;;;;;1.49;100.00;94997.84;5053082;28;20257;-66
2021/01/31 00:52:40;;;;;;;8.73;7.57;;;;;;;1.22;100.00;94986.97;5053652;28;20851;-69
2021/01/31 00:55:06;;;;;;;9.80;8.80;;;;;;;1.43;100.00;94993.53;5054787;28;20264;-70
2021/01/31 00:57:31;;;;;;;9.47;8.40;;;;;;;1.53;100.00;94993.03;5053733;28;20190;-66
2021/01/31 00:59:57;;;;;;;8.73;7.83;;;;;;;1.52;100.00;94991.44;5054156;28;21007;-67
2021/01/31 01:02:22;;;;;;;10.17;7.70;;;;;;;1.39;100.00;94989.78;5053948;28;20557;-71
2021/01/31 01:04:49;;;;;;;8.80;7.90;;;;;;;1.39;100.00;94994.16;5053602;28;20256;-67
2021/01/31 01:07:16;;;;;;;8.87;7.97;;;;;;;1.35;100.00;94993.00;5052989;28;20293;-67
2021/01/31 01:09:41;;;;;;;9.10;8.13;;;;;;;1.34;100.00;94996.59;5052452;28;20182;-67
2021/01/31 01:12:07;;;;;;;8.80;7.97;;;;;;;1.39;100.00;94999.31;5053975;28;20185;-68
2021/01/31 01:14:33;;;;;;;8.33;7.43;;;;;;;1.29;100.00;94999.78;5052247;28;20186;-66
2021/01/31 01:17:00;;;;;;;8.93;8.00;;;;;;;1.30;100.00;94996.22;5054597;28;20182;-66
2021/01/31 01:19:27;;;;;;;9.53;8.53;;;;;;;1.21;100.00;95000.09;5053586;28;20200;-68
2021/01/31 01:21:53;;;;;;;8.30;7.43;;;;;;;1.38;100.00;94995.97;5054161;28;20194;-67
2021/01/31 01:24:18;;;;;;;9.50;8.60;;;;;;;1.48;100.00;95004.00;5053774;28;20209;-68
2021/01/31 01:26:44;;;;;;;9.33;8.43;;;;;;;1.47;100.00;95005.00;5053492;28;20269;-67
2021/01/31 01:29:10;;;;;;;9.27;8.00;;;;;;;1.51;100.00;95013.09;5052748;28;20178;-67
2021/01/31 01:31:35;;;;;;;9.37;8.37;;;;;;;1.51;100.00;95006.13;5052597;28;20178;-67
2021/01/31 01:34:00;;;;;;;9.53;8.53;;;;;;;1.63;100.00;95017.34;5054038;28;20698;-67
2021/01/31 01:36:26;;;;;;;10.73;8.10;;;;;;;1.58;100.00;95013.81;5034831;28;20190;-69
2021/01/31 01:38:51;;;;;;;9.13;8.20;;;;;;;1.56;100.00;95011.44;5053992;28;20190;-66
2021/01/31 01:41:18;;;;;;;10.77;9.20;;;;;;;1.49;100.00;95010.75;5053907;28;20280;-67
2021/01/31 01:43:43;;;;;;;10.10;8.87;;;;;;;1.52;100.00;95002.56;5053511;28;20194;-67
2021/01/31 01:46:18;;;;;;;10.27;9.17;;;;;;;1.51;100.00;95000.97;5053216;28;20182;-67
2021/01/31 01:49:13;;;;;;;10.77;9.17;;;;;;;1.51;100.00;94997.59;5051789;28;20185;-67
2021/01/31 01:52:16;;;;;;;11.57;9.83;;;;;;;1.42;100.00;95002.25;5045856;28;20194;-67
2021/01/31 01:54:45;;;;;;;9.73;8.47;;;;;;;1.41;100.00;95007.63;5004914;28;20197;-67
2021/01/31 01:57:15;;;;;;;8.93;8.03;;;;;;;1.41;100.00;95011.00;5053119;28;20194;-67
2021/01/31 01:59:43;;;;;;;9.40;8.17;;;;;;;1.63;100.00;95006.22;5026864;28;20601;-67
2021/01/31 02:02:32;;;;;;;10.23;9.23;;;;;;;1.67;100.00;95002.97;5052002;28;20228;-67
2021/01/31 02:05:07;;;;;;;9.67;8.73;;;;;;;1.64;100.00;95000.06;5049853;28;20197;-67
2021/01/31 02:07:33;;;;;;;10.20;9.30;;;;;;;1.73;100.00;95010.91;5052673;28;20295;-67
2021/01/31 02:09:59;;;;;;;10.67;9.73;;;;;;;1.70;100.00;95008.72;5053396;28;20174;-66
2021/01/31 02:12:28;;;;;;;10.33;9.43;;;;;;;1.62;100.00;95008.00;5052660;28;20262;-71
2021/01/31 02:14:57;;;;;;;11.53;10.43;;;;;;;1.70;100.00;95012.09;5053297;28;20261;-66
2021/01/31 02:17:49;;;;;;;11.33;10.33;;;;;;;1.64;100.00;95018.13;5052836;28;20277;-66
2021/01/31 02:20:52;;;;;;;11.27;10.07;;;;;;;1.53;100.00;95014.47;5053208;28;20167;-66
2021/01/31 02:23:38;;;;;;;10.83;9.87;;;;;;;1.41;100.00;95018.75;5052803;28;20178;-66
2021/01/31 02:26:10;;;;;;;11.00;10.00;;;;;;;1.41;100.00;95016.16;5039338;28;20567;-67
2021/01/31 02:28:45;;;;;;;10.63;9.63;;;;;;;1.39;100.00;95020.78;5052109;28;20643;-67
2021/01/31 02:31:38;;;;;;;10.20;9.20;;;;;;;1.44;100.00;95025.28;5052990;28;20174;-66
2021/01/31 02:34:30;;;;;;;10.90;9.57;;;;;;;1.40;100.00;95032.66;5039627;28;20177;-67
2021/01/31 02:37:10;;;;;;;10.80;9.70;;;;;;;1.44;100.00;95035.59;5052454;28;20724;-66
2021/01/31 02:39:54;;;;;;;10.67;9.60;;;;;;;1.39;100.00;95036.25;5033315;28;20213;-67
2021/01/31 02:42:41;;;;;;;10.13;9.13;;;;;;;1.37;100.00;95029.72;5052540;28;20185;-66
2021/01/31 02:45:14;;;;;;;10.50;9.40;;;;;;;1.21;100.00;95038.78;5052129;28;20185;-66
2021/01/31 02:47:47;;;;;;;12.03;9.60;;;;;;;1.21;100.00;95041.38;5051680;28;20741;-67
2021/01/31 02:50:21;;;;;;;11.50;10.03;;;;;;;1.19;100.00;95041.56;5052581;28;20240;-66
2021/01/31 02:53:03;;;;;;;11.80;9.70;;;;;;;1.15;100.00;95053.31;5033824;28;20845;-67
2021/01/31 02:55:34;;;;;;;9.87;8.87;;;;;;;1.06;100.00;95059.72;5047788;28;20282;-71
2021/01/31 02:58:10;;;;;;;11.43;9.90;;;;;;;0.99;100.00;95056.41;5052402;28;20174;-66
2021/01/31 03:00:45;;;;;;;11.87;9.43;;;;;;;0.89;100.00;95058.69;5050134;28;20190;-66
2021/01/31 03:03:15;;;;;;;11.67;9.70;;;;;;;0.88;100.00;95057.09;5051692;28;20177;-66
2021/01/31 03:05:46;;;;;;;10.73;9.30;;;;;;;0.78;100.00;95052.38;5049879;28;20212;-66
2021/01/31 03:08:18;;;;;;;12.27;10.53;;;;;;;0.86;100.00;95053.91;5050981;28;20205;-66
2021/01/31 03:10:51;;;;;;;11.17;9.97;;;;;;;0.95;100.00;95062.97;5033577;28;20635;-65
2021/01/31 03:13:27;;;;;;;11.67;10.40;;;;;;;0.96;100.00;95059.41;5051404;28;20182;-65
2021/01/31 03:16:07;;;;;;;13.60;11.23;;;;;;;0.93;100.00;95071.94;5033980;28;20169;-65
2021/01/31 03:18:40;;;;;;;11.77;10.17;;;;;;;0.89;100.00;95071.56;5045086;28;20661;-66
2021/01/31 03:21:11;;;;;;;13.27;10.57;;;;;;;0.87;100.00;95072.75;5042175;28;20182;-67
2021/01/31 03:23:58;;;;;;;13.83;11.27;;;;;;;0.90;100.00;95067.97;5037800;28;20174;-65
2021/01/31 03:26:38;;;;;;;13.83;11.17;;;;;;;0.79;100.00;95076.38;5050138;28;20197;-66
2021/01/31 03:29:03;;;;;;;12.33;10.47;;;;;;;0.75;100.00;95072.63;5051941;28;20180;-66
2021/01/31 03:31:31;;;;;;;13.83;11.20;;;;;;;0.79;100.00;95072.00;5051575;28;20221;-71
2021/01/31 03:34:08;;;;;;;13.67;10.23;;;;;;;0.75;100.00;95064.91;5051342;28;20704;-66
2021/01/31 03:36:37;;;;;;;11.23;9.87;;;;;;;0.98;100.00;95069.50;5050686;28;20182;-66
2021/01/31 03:39:04;;;;;;;11.57;10.00;;;;;;;0.89;100.00;95060.47;5051593;28;20175;-66
2021/01/31 03:41:30;;;;;;;11.77;10.57;;;;;;;0.99;100.00;95065.94;5050952;28;20190;-71
2021/01/31 03:43:56;;;;;;;13.63;11.27;;;;;;;0.86;100.00;95066.81;5051500;28;20178;-65
2021/01/31 03:46:36;;;;;;;12.37;11.07;;;;;;;0.75;100.00;95063.13;5051607;28;20206;-66
2021/01/31 03:49:20;;;;;;;13.10;11.57;;;;;;;0.93;100.00;95061.63;5045664;28;20185;-66
2021/01/31 03:51:45;;;;;;;12.87;11.20;;;;;;;0.86;100.00;95063.44;5050657;28;20228;-65
2021/01/31 03:54:11;;;;;;;12.10;11.00;;;;;;;0.92;100.00;95062.63;5051715;28;20645;-65
2021/01/31 03:56:43;;;;;;;11.87;10.63;;;;;;;0.75;100.00;95057.16;5050289;28;20194;-66
2021/01/31 03:59:13;;;;;;;12.17;10.87;;;;;;;0.80;100.00;95068.44;5051733;28;20235;-65
2021/01/31 04:01:39;;;;;;;13.03;11.70;;;;;;;0.82;100.00;95069.03;5050534;28;20182;-66
2021/01/31 04:04:17;;;;;;;12.73;11.43;;;;;;;0.98;100.00;95079.84;5050447;28;20178;-65
2021/01/31 04:06:43;;;;;;;12.20;11.03;;;;;;;0.96;100.00;95086.97;5050274;28;20663;-65
2021/01/31 04:09:11;;;;;;;12.70;11.50;;;;;;;1.09;100.00;95092.06;5051514;28;20644;-65
2021/01/31 04:11:38;;;;;;;13.10;11.90;;;;;;;1.11;100.00;95098.59;5048811;28;20308;-65
2021/01/31 04:14:13;;;;;;;12.63;11.53;;;;;;;1.16;100.00;95103.13;5050602;28;20174;-66
2021/01/31 04:16:44;;;;;;;14.13;12.73;;;;;;;1.22;100.00;95107.44;5049438;28;20224;-65
2021/01/31 04:19:11;;;;;;;13.27;12.07;;;;;;;0.99;100.00;95100.25;5050952;28;20177;-65
2021/01/31 04:21:37;;;;;;;12.97;11.77;;;;;;;1.03;100.00;95103.22;5050049;28;20194;-66
2021/01/31 04:24:03;;;;;;;13.47;12.10;;;;;;;1.06;100.00;95105.38;5049999;28;20606;-66
2021/01/31 04:26:29;;;;;;;14.00;12.60;;;;;;;1.16;100.00;95100.53;5050663;28;20746;-71
2021/01/31 04:28:54;;;;;;;13.60;12.30;;;;;;;1.28;100.00;95104.03;5050535;28;20261;-67
2021/01/31 04:31:19;;;;;;;13.37;12.07;;;;;;;1.18;100.00;95103.69;5050938;28;20608;-65
2021/01/31 04:33:45;;;;;;;12.90;11.80;;;;;;;1.28;100.00;95110.97;5049634;28;20188;-69
2021/01/31 04:36:10;;;;;;;14.13;12.70;;;;;;;1.03;100.00;95109.16;5050956;28;20190;-67
2021/01/31 04:38:35;;;;;;;12.63;11.50;;;;;;;1.12;100.00;95109.69;5050494;28;20305;-65
2021/01/31 04:41:01;;;;;;;12.07;10.97;;;;;;;1.06;100.00;95105.38;5050885;28;20520;-65
2021/01/31 04:43:27;;;;;;;13.20;11.93;;;;;;;1.18;100.00;95106.28;5051197;28;20190;-65
2021/01/31 04:45:58;;;;;;;13.60;12.20;;;;;;;1.25;100.00;95107.81;5032012;28;20228;-66
2021/01/31 04:48:37;;;;;;;14.03;12.70;;;;;;;1.34;100.00;95107.56;5051050;28;20284;-66
2021/01/31 04:51:24;;;;;;;14.57;13.07;;;;;;;1.31;100.00;95101.03;5051138;28;20181;-66
2021/01/31 04:54:04;;;;;;;13.63;12.30;;;;;;;1.20;100.00;95102.50;5049616;28;20201;-67
2021/01/31 04:56:54;;;;;;;13.73;12.43;;;;;;;1.32;100.00;95104.41;5050636;28;20576;-71
2021/01/31 04:59:49;;;;;;;13.73;12.43;;;;;;;1.43;100.00;95101.13;5050225;28;20182;-65
2021/01/31 05:02:20;;;;;;;12.93;11.63;;;;;;;1.23;100.00;95106.44;5037677;28;20190;-65
2021/01/31 05:05:17;;;;;;;13.60;12.13;;;;;;;1.18;100.00;95090.78;5049765;28;20181;-65
2021/01/31 05:07:56;;;;;;;12.50;11.40;;;;;;;0.98;100.00;95093.53;5049757;28;20666;-65
2021/01/31 05:10:22;;;;;;;12.70;11.50;;;;;;;1.13;100.00;95090.63;5049343;28;20244;-65
2021/01/31 05:13:11;;;;;;;12.63;11.53;;;;;;;1.16;100.00;95087.66;5050059;28;20564;-65
2021/01/31 05:16:01;;;;;;;13.63;12.37;;;;;;;1.23;100.00;95088.38;5049775;28;20591;-65
2021/01/31 05:18:28;;;;;;;13.60;12.40;;;;;;;1.16;100.00;95090.22;5050228;28;20178;-65
2021/01/31 05:21:01;;;;;;;13.13;11.97;;;;;;;1.16;100.00;95085.84;5050032;28;20182;-65
2021/01/31 05:23:31;;;;;;;12.53;11.40;;;;;;;1.14;100.00;95090.44;5050390;28;20190;-65
2021/01/31 05:25:56;;;;;;;12.70;11.50;;;;;;;1.33;100.00;95093.88;5050206;28;20182;-66
2021/01/31 05:28:25;;;;;;;12.33;11.30;;;;;;;0.93;100.00;95087.41;5049904;28;20709;-65
2021/01/31 05:30:51;;;;;;;12.63;11.53;;;;;;;1.20;100.00;95087.00;5049609;28;20213;-65
2021/01/31 05:33:21;;;;;;;12.73;11.53;;;;;;;1.19;100.00;95092.38;5049360;28;20193;-68
2021/01/31 05:36:13;;;;;;;11.93;10.93;;;;;;;1.21;100.00;95086.03;5050298;28;20312;-65
2021/01/31 05:38:41;;;;;;;12.27;11.17;;;;;;;1.34;100.00;95092.84;5052650;28;20697;-65
2021/01/31 05:41:28;;;;;;;13.20;12.00;;;;;;;1.25;100.00;95094.13;5054067;28;20582;-65
2021/01/31 05:44:22;;;;;;;12.10;11.00;;;;;;;1.30;100.00;95089.13;5046818;28;20189;-66
2021/01/31 05:46:51;;;;;;;11.93;10.90;;;;;;;1.19;100.00;95098.31;5045049;28;20206;-66
2021/01/31 05:49:38;;;;;;;12.90;11.67;;;;;;;1.35;100.00;95101.38;5053626;28;20228;-66
2021/01/31 05:52:09;;;;;;;12.53;11.43;;;;;;;1.22;100.00;95097.13;5053862;28;20220;-66
2021/01/31 05:54:37;;;;;;;12.00;10.90;;;;;;;1.45;100.00;95097.31;5053022;28;20174;-71
2021/01/31 05:57:04;;;;;;;13.40;12.20;;;;;;;1.29;100.00;95102.22;5053574;28;20220;-65
2021/01/31 05:59:41;;;;;;;13.70;12.40;;;;;;;1.28;100.00;95103.25;5053355;28;20220;-65
2021/01/31 06:02:08;;;;;;;12.67;11.47;;;;;;;1.50;100.00;95113.00;5053294;28;20642;-66
2021/01/31 06:04:33;;;;;;;12.17;11.03;;;;;;;1.69;100.00;95116.38;5052665;28;20189;-71
2021/01/31 06:07:12;;;;;;;12.53;11.43;;;;;;;1.75;100.00;95120.72;5053625;28;20651;-66
2021/01/31 06:09:46;;;;;;;11.73;10.63;;;;;;;1.65;100.00;95118.63;5052430;28;20191;-66
2021/01/31 06:12:22;;;;;;;12.23;11.07;;;;;;;1.56;100.00;95129.44;5035390;28;20190;-66
2021/01/31 06:15:32;;;;;;;12.63;11.43;;;;;;;1.64;100.00;95135.09;5052912;28;20192;-66
2021/01/31 06:18:16;;;;;;;12.60;11.30;;;;;;;1.38;100.00;95135.31;5052999;28;20194;-66
2021/01/31 06:20:43;;;;;;;12.57;11.27;;;;;;;1.54;100.00;95134.78;5051879;28;20604;-66
2021/01/31 06:23:39;;;;;;;12.93;11.57;;;;;;;1.51;100.00;95140.38;5053458;28;20553;-66
2021/01/31 06:26:05;;;;;;;11.80;10.70;;;;;;;1.49;100.00;95139.00;5053436;28;20249;-66
2021/01/31 06:28:46;;;;;;;12.07;10.97;;;;;;;1.48;100.00;95132.25;5052642;28;20242;-70
2021/01/31 06:31:24;;;;;;;12.87;11.67;;;;;;;1.33;100.00;95131.78;5034508;28;20186;-69
2021/01/31 06:33:49;;;;;;;11.80;10.70;;;;;;;1.48;100.00;95140.00;5051960;28;20228;-66
2021/01/31 06:36:21;;;;;;;12.10;11.00;;;;;;;1.50;100.00;95150.91;5034758;28;20217;-67
2021/01/31 06:39:11;;;;;;;13.67;12.30;;;;;;;1.27;100.00;95154.06;5052130;28;20234;-69
2021/01/31 06:41:49;;;;;;;12.67;11.37;;;;;;;1.33;100.00;95145.47;5047910;28;20192;-69
2021/01/31 06:44:37;;;;;;;12.43;11.33;;;;;;;1.48;100.00;95156.28;5043656;28;20648;-66
2021/01/31 06:47:17;;;;;;;12.10;10.90;;;;;;;1.42;100.00;95161.50;5039448;28;20280;-65
2021/01/31 06:49:54;;;;;;;12.37;11.17;;;;;;;1.27;100.00;95158.44;5041681;28;20173;-68
2021/01/31 06:52:36;;;;;;;12.37;11.17;;;;;;;1.27;100.00;95156.63;5043690;28;20170;-70
2021/01/31 06:55:10;;;;;;;11.77;10.67;;;;;;;1.04;100.00;95164.91;5052557;28;20174;-69
2021/01/31 06:58:00;;;;;;;11.60;10.50;;;;;;;1.12;100.00;95164.66;5051883;28;20262;-73
2021/01/31 07:00:40;;;;;;;12.77;11.57;;;;;;;1.28;100.00;95170.34;5037233;28;20163;-70
2021/01/31 07:03:22;;;;;;;12.30;11.10;;;;;;;1.47;100.00;95175.34;5051431;28;20367;-70
2021/01/31 07:06:12;;;;;;;12.00;10.90;;;;;;;1.45;100.00;95184.31;5050228;28;20265;-71
2021/01/31 07:09:19;;;;;;;12.13;10.93;;;;;;;1.55;100.00;95177.69;5051643;28;20272;-71
2021/01/31 07:12:01;;;;;;;12.50;11.30;;;;;;;1.39;100.00;95180.78;5030469;28;20189;-68
2021/01/31 07:14:34;;;;;;;11.90;10.80;;;;;;;1.51;100.00;95192.00;5044474;28;20186;-69
2021/01/31 07:17:21;;;;;;;12.50;11.40;;;;;;;1.56;100.00;95193.97;5051797;28;20281;-68
2021/01/31 07:20:09;;;;;;;13.03;11.73;;;;;;;1.51;100.00;95196.34;5049682;28;20666;-69
2021/01/31 07:22:50;;;;;;;13.43;12.03;;;;;;;1.52;100.00;95201.31;5051232;28;20181;-75
2021/01/31 07:25:22;;;;;;;13.27;11.60;;;;;;;1.45;100.00;95204.97;5051932;28;20872;-69
2021/01/31 07:27:53;;;;;;;13.83;12.43;;;;;;;1.48;100.00;95201.97;5051208;28;20255;-73
2021/01/31 07:30:28;;;;;;;12.97;11.67;;;;;;;1.32;100.00;95211.00;5052309;28;20216;-70
2021/01/31 07:33:15;;;;;;;13.00;11.70;;;;;;;1.49;100.00;95208.72;5045986;28;20173;-70
2021/01/31 07:36:05;;;;;;;13.07;11.77;;;;;;;1.50;100.00;95203.34;5041904;28;20189;-70
2021/01/31 07:38:36;;;;;;;11.83;10.73;;;;;;;1.25;100.00;95200.72;5051792;28;20629;-70
2021/01/31 07:41:03;;;;;;;12.63;11.43;;;;;;;1.33;100.00;95210.00;5051983;28;20182;-69
2021/01/31 07:43:33;;;;;;;12.67;11.57;;;;;;;1.55;100.00;95210.47;5051633;28;20315;-71
2021/01/31 07:46:05;;;;;;;13.00;11.80;;;;;;;1.61;100.00;95217.38;5051565;28;20197;-71
2021/01/31 07:48:51;;;;;;;12.00;10.90;;;;;;;1.60;100.00;95220.94;5051116;28;20285;-71
2021/01/31 07:51:39;;;;;;;11.40;10.37;;;;;;;1.70;100.00;95225.63;5050854;28;20277;-68
2021/01/31 07:54:25;;;;;;;12.27;11.07;;;;;;;1.45;100.00;95228.97;5051484;28;20193;-67
2021/01/31 07:56:53;;;;;;;11.77;10.67;;;;;;;1.64;100.00;95216.94;5050129;28;20923;-67
2021/01/31 07:59:18;;;;;;;11.57;10.47;;;;;;;1.56;100.00;95214.63;5050230;28;20552;-68
2021/01/31 08:01:50;;;;;;;12.10;10.93;;;;;;;1.47;100.00;95215.84;5050053;28;20193;-67
2021/01/31 08:04:18;;;;;;;12.70;11.50;;;;;;;1.28;100.00;95212.41;5051456;28;20223;-67
2021/01/31 08:06:45;;;;;;;11.87;10.67;;;;;;;1.55;100.00;95211.25;5031486;28;20735;-67
2021/01/31 08:09:30;;;;;;;12.07;10.97;;;;;;;1.49;100.00;95219.81;5051803;28;20189;-68
2021/01/31 08:12:05;;;;;;;12.10;11.00;;;;;;;1.57;100.00;95226.50;5050213;28;20661;-67
2021/01/31 08:15:05;;;;;;;11.43;10.33;;;;;;;1.47;100.00;95218.44;5050917;28;20211;-73
2021/01/31 08:17:55;;;;;;;11.73;10.63;;;;;;;1.56;100.00;95217.97;5051519;28;20189;-68
2021/01/31 08:20:38;;;;;;;11.37;10.23;;;;;;;1.56;100.00;95220.56;5043127;28;20183;-69
2021/01/31 08:23:23;;;;;;;11.23;10.23;;;;;;;1.74;100.00;95221.63;5043904;28;20192;-71
2021/01/31 08:26:00;;;;;;;10.47;9.57;;;;;;;1.79;100.00;95226.94;5037680;28;20186;-68
2021/01/31 08:28:31;;;;;;;10.67;9.77;;;;;;;1.94;99.87;95233.41;5050786;28;20201;-65
2021/01/31 08:31:16;;;;;;;11.20;10.17;;;;;;;2.05;99.97;95235.31;5050182;28;20193;-68
2021/01/31 08:33:44;;;;;;;10.80;9.70;;;;;;;1.78;100.00;95233.94;5049091;28;20274;-68
2021/01/31 08:36:18;;;;;;;10.27;9.37;;;;;;;2.00;100.00;95227.41;5051433;28;20192;-68
2021/01/31 08:38:49;;;;;;;11.80;10.80;;;;;;;2.30;99.89;95224.94;5049889;28;20689;-72
2021/01/31 08:41:36;;;;;;;11.10;9.97;;;;;;;2.32;98.40;95233.28;5051386;28;20572;-71
2021/01/31 08:44:10;;;;;;;9.73;8.87;;;;;;;2.24;97.19;95223.19;5038589;28;20257;-67
2021/01/31 08:46:54;;;;;;;9.23;8.43;;;;;;;2.16;97.47;95230.44;5050419;28;20213;-74
2021/01/31 08:49:20;;;;;;;9.60;8.80;;;;;;;1.97;97.42;95230.38;5049655;28;20622;-70
2021/01/31 08:51:59;;;;;;;9.87;8.90;;;;;;;2.01;97.83;95241.09;5049746;28;20182;-68
2021/01/31 08:54:26;;;;;;;9.80;8.83;;;;;;;1.97;97.81;95245.88;5050822;28;20572;-69
2021/01/31 08:56:58;;;;;;;10.00;9.10;;;;;;;2.06;97.51;95243.84;5050175;28;20216;-66
2021/01/31 08:59:24;;;;;;;9.43;8.63;;;;;;;2.11;97.82;95244.00;5050664;28;20186;-71
2021/01/31 09:01:58;;;;;;;10.20;9.30;;;;;;;1.88;98.52;95242.00;5049883;28;20269;-65
2021/01/31 09:04:25;;;;;;;9.80;9.00;;;;;;;1.94;96.98;95242.94;5051014;28;20213;-66
2021/01/31 09:06:52;;;;;;;11.13;10.03;;;;;;;1.78;97.86;95244.25;5050084;28;20237;-64
2021/01/31 09:09:30;;;;;;;10.73;9.63;;;;;;;1.66;98.53;95248.50;5050857;28;20185;-66
2021/01/31 09:11:59;;;;;;;10.37;9.47;;;;;;;1.63;98.81;95249.69;5052798;28;20208;-67
2021/01/31 09:14:34;;;;;;;10.67;9.57;;;;;;;1.65;99.53;95254.66;5054212;28;20508;-68
2021/01/31 09:17:04;;;;;;;10.80;9.80;;;;;;;1.73;99.77;95256.22;5054813;28;20177;-67
2021/01/31 09:19:30;;;;;;;11.07;10.07;;;;;;;1.85;97.84;95260.47;5054070;28;20189;-69
2021/01/31 09:22:18;;;;;;;11.27;9.83;;;;;;;2.05;97.71;95255.97;5053799;28;20182;-70
2021/01/31 09:24:51;;;;;;;11.13;10.03;;;;;;;1.96;97.69;95251.25;5053373;28;20197;-69
2021/01/31 09:27:20;;;;;;;10.87;9.80;;;;;;;1.79;97.73;95258.72;5054584;28;20221;-70
2021/01/31 09:29:48;;;;;;;10.73;9.73;;;;;;;1.81;98.31;95263.69;5053263;28;20177;-69
2021/01/31 09:32:37;;;;;;;10.20;9.20;;;;;;;1.98;97.71;95262.97;5050207;28;20551;-70
2021/01/31 09:35:07;;;;;;;10.73;9.63;;;;;;;1.95;98.04;95267.78;5039983;28;20643;-69
2021/01/31 09:37:32;;;;;;;12.00;10.73;;;;;;;1.91;98.10;95276.94;5050288;28;20241;-74
2021/01/31 09:40:01;;;;;;;10.77;9.77;;;;;;;1.80;97.18;95273.22;5051653;28;20182;-70
2021/01/31 09:42:29;;;;;;;11.90;10.70;;;;;;;1.77;98.00;95265.13;5053757;28;20712;-69
2021/01/31 09:45:17;;;;;;;10.90;9.90;;;;;;;1.91;97.12;95264.81;5052631;28;20643;-70
2021/01/31 09:47:50;;;;;;;12.20;11.00;;;;;;;1.82;98.31;95281.56;5035249;28;20210;-70
2021/01/31 09:50:16;;;;;;;12.07;10.87;;;;;;;2.09;97.86;95277.78;5053854;28;20174;-69
2021/01/31 09:52:47;;;;;;;11.70;10.60;;;;;;;2.05;97.90;95274.06;5052573;28;20208;-69
2021/01/31 09:55:25;;;;;;;11.43;10.23;;;;;;;2.29;98.31;95271.66;5053920;28;20190;-69
2021/01/31 09:57:50;;;;;;;10.70;9.60;;;;;;;2.17;95.48;95275.97;5052379;28;20201;-71
2021/01/31 10:00:32;;;;;;;10.53;9.30;;;;;;;2.21;96.65;95274.53;5053274;28;20189;-69
2021/01/31 10:03:07;;;;;;;12.03;10.40;;;;;;;2.37;96.79;95274.78;5053903;28;20615;-69
2021/01/31 10:05:35;;;;;;;11.23;10.03;;;;;;;2.35;95.24;95286.31;5053454;28;20539;-74
2021/01/31 10:08:07;;;;;;;11.43;10.23;;;;;;;2.13;95.67;95279.94;5052661;28;20190;-70
2021/01/31 10:10:39;;;;;;;11.30;10.10;;;;;;;2.27;96.08;95276.28;5052596;28;20650;-74
2021/01/31 10:13:14;;;;;;;11.50;9.83;;;;;;;2.40;96.06;95276.13;5053408;28;20170;-69
2021/01/31 10:15:41;;;;;;;11.70;10.53;;;;;;;2.64;94.46;95267.56;5052794;28;20196;-70
2021/01/31 10:18:24;;;;;;;10.83;9.77;;;;;;;2.58;93.82;95270.22;5053041;28;20194;-69
2021/01/31 10:20:49;;;;;;;10.80;9.70;;;;;;;2.92;93.27;95256.72;5052333;28;20312;-70
2021/01/31 10:23:19;;;;;;;11.27;10.10;;;;;;;3.00;92.71;95259.03;5052270;28;20269;-69
2021/01/31 10:26:02;;;;;;;12.10;10.90;;;;;;;3.09;92.42;95249.16;5051521;28;20214;-70
2021/01/31 10:28:44;;;;;;;12.43;11.13;;;;;;;3.15;92.32;95254.25;5053131;28;20197;-69
2021/01/31 10:31:23;;;;;;;12.90;11.60;;;;;;;3.29;91.56;95242.72;5053044;28;20178;-71
2021/01/31 10:33:52;;;;;;;12.17;10.70;;;;;;;3.38;91.41;95245.81;5052210;28;20580;-70
2021/01/31 10:36:56;;;;;;;12.03;10.83;;;;;;;3.11;91.58;95237.59;5052486;28;20178;-70
2021/01/31 10:39:25;;;;;;;11.27;10.07;;;;;;;3.08;90.85;95238.00;5018967;28;20261;-70
2021/01/31 10:41:52;;;;;;;11.90;10.70;;;;;;;3.01;93.09;95236.53;5051968;28;20678;-70
2021/01/31 10:44:25;;;;;;;11.30;10.10;;;;;;;3.05;90.38;95238.47;5051079;28;20248;-70
2021/01/31 10:46:50;;;;;;;10.47;9.37;;;;;;;3.22;90.34;95251.59;5051917;28;20194;-71
2021/01/31 10:49:16;;;;;;;12.03;10.57;;;;;;;3.11;88.88;95237.59;5051279;28;20243;-68
2021/01/31 10:51:43;;;;;;;12.87;11.43;;;;;;;3.45;90.25;95243.94;5052047;28;20257;-67
2021/01/31 10:54:08;;;;;;;11.83;10.63;;;;;;;3.63;89.32;95250.84;5052925;28;20193;-69
2021/01/31 10:56:34;;;;;;;11.80;10.60;;;;;;;3.63;88.73;95250.84;5052504;28;20573;-75
2021/01/31 10:58:59;;;;;;;12.60;10.93;;;;;;;3.85;88.57;95251.13;5052327;28;20186;-69
2021/01/31 11:01:25;;;;;;;11.07;9.27;;;;;;;3.43;88.41;95255.50;5052346;28;20614;-68
2021/01/31 11:03:50;;;;;;;11.30;10.13;;;;;;;3.67;88.21;95255.38;5051875;28;20284;-68
2021/01/31 11:06:20;;;;;;;10.80;9.70;;;;;;;3.72;87.77;95252.91;5051953;28;20658;-70
2021/01/31 11:08:45;;;;;;;12.53;9.87;;;;;;;3.24;88.63;95246.97;5051628;28;20190;-68
2021/01/31 11:11:10;;;;;;;10.93;9.40;;;;;;;3.18;90.47;95240.06;5051182;28;20269;-68
2021/01/31 11:13:36;;;;;;;11.10;9.90;;;;;;;2.85;90.40;95237.88;5045592;28;20186;-68
2021/01/31 11:16:03;;;;;;;12.60;11.03;;;;;;;3.01;91.72;95233.94;5050991;28;20209;-69
2021/01/31 11:18:28;;;;;;;11.93;10.13;;;;;;;3.20;91.27;95233.69;5049233;28;20193;-68
2021/01/31 11:20:55;;;;;;;12.13;10.10;;;;;;;3.64;89.17;95237.66;5042240;28;20187;-69
2021/01/31 11:23:21;;;;;;;12.10;10.03;;;;;;;3.81;88.18;95227.47;5051535;28;20174;-67
2021/01/31 11:25:46;;;;;;;11.07;9.43;;;;;;;3.93;87.02;95228.28;5050968;28;20228;-68
2021/01/31 11:28:12;;;;;;;11.17;9.87;;;;;;;4.08;87.20;95231.22;5051317;28;20233;-68
2021/01/31 11:30:38;;;;;;;11.77;9.30;;;;;;;3.79;86.99;95229.47;5048961;28;20608;-68
2021/01/31 11:33:04;;;;;;;11.40;9.40;;;;;;;4.02;85.97;95232.09;5051358;28;20186;-67
2021/01/31 11:35:31;;;;;;;10.67;9.57;;;;;;;3.88;85.73;95235.94;5052005;28;20182;-68
2021/01/31 11:37:57;;;;;;;10.07;8.97;;;;;;;3.83;86.47;95238.41;5049598;28;20226;-67
2021/01/31 11:40:23;;;;;;;9.93;8.93;;;;;;;3.88;85.34;95233.34;5051944;28;20178;-67
2021/01/31 11:42:48;;;;;;;9.07;8.17;;;;;;;4.01;85.74;95234.94;5050647;28;20277;-68
2021/01/31 11:45:15;;;;;;;9.20;8.40;;;;;;;4.23;84.22;95233.38;5051493;28;20273;-67
2021/01/31 11:47:41;;;;;;;9.53;8.37;;;;;;;3.76;84.67;95237.69;5050520;28;20247;-67
2021/01/31 11:50:08;;;;;;;9.90;8.90;;;;;;;3.93;86.25;95230.88;5051333;28;20182;-67
2021/01/31 11:52:34;;;;;;;16.70;8.83;;;;;;;4.33;85.71;95225.03;5051132;28;20214;-76